createdAt,value
2023-02-15T00:01:15.439Z,102877.81
2023-02-15T00:03:49.107Z,102902.19
2023-02-15T00:06:19.000Z,102893.50
2023-02-15T00:08:55.107Z,102883.00
2023-02-15T00:11:40.819Z,102891.72
2023-02-15T00:14:16.236Z,102889.13
2023-02-15T00:16:48.036Z,102881.31
2023-02-15T00:19:24.227Z,102885.69
2023-02-15T00:21:57.209Z,102876.13
2023-02-15T00:24:31.159Z,102865.69
2023-02-15T00:27:05.134Z,102891.84
2023-02-15T00:29:31.882Z,102895.34
2023-02-15T00:32:05.278Z,102874.41
2023-02-15T00:34:32.082Z,102884.88
2023-02-15T00:37:05.125Z,102894.50
2023-02-15T00:39:34.366Z,102891.88
2023-02-15T00:42:07.305Z,102887.53
2023-02-15T00:44:33.964Z,102891.91
2023-02-15T00:47:08.281Z,102886.69
2023-02-15T00:49:35.005Z,102886.69
2023-02-15T00:52:08.145Z,102892.84
2023-02-15T00:54:35.866Z,102882.38
2023-02-15T00:57:23.142Z,102886.72
2023-02-15T00:59:50.724Z,102882.38
2023-02-15T01:02:38.158Z,102874.50
2023-02-15T01:05:13.630Z,102872.78
2023-02-15T01:07:47.298Z,102865.81
2023-02-15T01:10:24.975Z,102866.69
2023-02-15T01:12:55.535Z,102857.09
2023-02-15T01:15:29.116Z,102844.03
2023-02-15T01:17:56.338Z,102864.06
2023-02-15T01:20:35.185Z,102845.78
2023-02-15T01:23:01.934Z,102855.34
2023-02-15T01:25:38.285Z,102860.59
2023-02-15T01:28:05.512Z,102862.34
2023-02-15T01:30:40.323Z,102837.06
2023-02-15T01:33:07.254Z,102832.72
2023-02-15T01:35:34.296Z,102831.84
2023-02-15T01:38:07.251Z,102853.66
2023-02-15T01:40:33.787Z,102844.94
2023-02-15T01:43:07.223Z,102842.31
2023-02-15T01:45:34.127Z,102831.84
2023-02-15T01:48:37.162Z,102820.50
2023-02-15T01:51:04.548Z,102835.31
2023-02-15T01:53:49.177Z,102835.34
2023-02-15T01:56:30.266Z,102830.13
2023-02-15T01:59:16.184Z,102822.25
2023-02-15T02:01:43.321Z,102822.28
2023-02-15T02:04:39.147Z,102818.81
2023-02-15T02:07:18.278Z,102821.44
2023-02-15T02:09:53.225Z,102822.31
2023-02-15T02:12:29.208Z,102816.22
2023-02-15T02:15:03.287Z,102826.69
2023-02-15T02:17:59.936Z,102824.94
2023-02-15T02:20:38.146Z,102822.34
2023-02-15T02:23:33.199Z,102822.31
2023-02-15T02:26:19.459Z,102820.56
2023-02-15T02:29:26.869Z,102817.09
2023-02-15T02:32:34.201Z,102807.50
2023-02-15T02:35:25.295Z,102818.00
2023-02-15T02:38:24.572Z,102812.75
2023-02-15T02:41:15.624Z,102811.88
2023-02-15T02:43:55.811Z,102776.16
2023-02-15T02:46:36.336Z,102794.44
2023-02-15T02:49:35.311Z,102804.03
2023-02-15T02:52:04.923Z,102801.41
2023-02-15T02:54:40.216Z,102778.75
2023-02-15T02:57:23.156Z,102770.03
2023-02-15T03:00:03.902Z,102773.50
2023-02-15T03:02:45.216Z,102767.41
2023-02-15T03:05:27.125Z,102775.25
2023-02-15T03:08:02.193Z,102763.03
2023-02-15T03:10:32.956Z,102769.13
2023-02-15T03:13:06.155Z,102755.22
2023-02-15T03:19:06.192Z,102741.25
2023-02-15T03:21:45.271Z,102759.56
2023-02-15T03:24:16.462Z,102753.44
2023-02-15T03:26:53.237Z,102763.91
2023-02-15T03:29:23.189Z,102757.78
2023-02-15T03:32:01.373Z,102756.03
2023-02-15T03:34:28.422Z,102743.81
2023-02-15T03:37:27.229Z,102746.44
2023-02-15T03:40:29.330Z,102749.03
2023-02-15T03:43:09.884Z,102747.31
2023-02-15T03:45:45.214Z,102746.44
2023-02-15T03:48:21.288Z,102746.44
2023-02-15T03:51:14.748Z,102733.34
2023-02-15T03:53:43.211Z,102732.50
2023-02-15T03:56:20.951Z,102735.97
2023-02-15T03:59:13.267Z,102756.00
2023-02-15T04:02:03.372Z,102735.97
2023-02-15T04:04:37.257Z,102740.28
2023-02-15T04:07:06.613Z,102740.34
2023-02-15T04:09:58.175Z,102735.09
2023-02-15T04:12:25.118Z,102739.47
2023-02-15T04:15:17.265Z,102741.19
2023-02-15T04:17:50.241Z,102743.84
2023-02-15T04:20:42.178Z,102745.59
2023-02-15T04:23:27.567Z,102749.06
2023-02-15T04:26:04.998Z,102750.81
2023-02-15T04:28:31.971Z,102742.13
2023-02-15T04:31:08.389Z,102729.06
2023-02-15T04:33:43.184Z,102731.66
2023-02-15T04:36:16.147Z,102744.75
2023-02-15T04:38:42.698Z,102729.94
2023-02-15T04:41:10.253Z,102733.41
2023-02-15T04:43:43.188Z,102724.69
2023-02-15T04:46:16.294Z,102724.69
2023-02-15T04:48:43.111Z,102717.69
2023-02-15T04:51:20.326Z,102718.56
2023-02-15T04:53:46.969Z,102692.44
2023-02-15T04:56:23.212Z,102705.50
2023-02-15T04:58:56.215Z,102709.84
2023-02-15T05:01:28.298Z,102710.75
2023-02-15T05:04:01.241Z,102702.00
2023-02-15T05:06:30.940Z,102699.38
2023-02-15T05:09:07.266Z,102701.16
2023-02-15T05:11:37.459Z,102714.19
2023-02-15T05:14:11.264Z,102688.94
2023-02-15T05:16:38.035Z,102697.66
2023-02-15T05:19:11.233Z,102688.94
2023-02-15T05:21:38.047Z,102690.69
2023-02-15T05:24:31.206Z,102702.00
2023-02-15T05:27:16.130Z,102693.28
2023-02-15T05:29:49.297Z,102697.66
2023-02-15T05:32:16.696Z,102689.81
2023-02-15T05:34:43.490Z,102695.94
2023-02-15T05:37:16.293Z,102693.31
2023-02-15T05:39:42.904Z,102695.06
2023-02-15T05:42:16.276Z,102694.19
2023-02-15T05:44:43.160Z,102670.69
2023-02-15T05:47:23.280Z,102688.97
2023-02-15T05:49:49.900Z,102690.72
2023-02-15T05:52:23.280Z,102699.47
2023-02-15T05:54:49.943Z,102695.94
2023-02-15T05:57:30.316Z,102700.31
2023-02-15T06:00:05.450Z,102698.59
2023-02-15T06:02:44.743Z,102697.72
2023-02-15T06:05:18.456Z,102670.69
2023-02-15T06:07:52.268Z,102694.22
2023-02-15T06:10:19.271Z,102679.41
2023-02-15T06:12:46.183Z,102688.13
2023-02-15T06:15:19.331Z,102669.84
2023-02-15T06:17:46.014Z,102684.66
2023-02-15T06:20:24.964Z,102690.75
2023-02-15T06:22:58.325Z,102685.53
2023-02-15T06:25:40.021Z,102687.28
2023-02-15T06:28:07.306Z,102669.84
2023-02-15T06:30:40.321Z,102657.66
2023-02-15T06:33:14.237Z,102678.56
2023-02-15T06:35:54.337Z,102675.94
2023-02-15T06:38:21.172Z,102669.00
2023-02-15T06:40:54.242Z,102663.75
2023-02-15T06:43:30.379Z,102680.31
2023-02-15T06:45:57.156Z,102680.31
2023-02-15T06:48:23.842Z,102682.94
2023-02-15T06:50:57.265Z,102676.81
2023-02-15T06:53:23.813Z,102687.25
2023-02-15T06:56:16.258Z,102678.56
2023-02-15T06:58:57.228Z,102678.53
2023-02-15T07:01:24.370Z,102671.56
2023-02-15T07:03:57.342Z,102667.19
2023-02-15T07:06:30.593Z,102662.88
2023-02-15T07:09:04.287Z,102675.91
2023-02-15T07:12:10.324Z,102663.69
2023-02-15T07:14:37.045Z,102668.91
2023-02-15T07:17:11.772Z,102678.47
2023-02-15T07:19:51.290Z,102682.75
2023-02-15T07:22:20.190Z,102680.09
2023-02-15T07:24:53.378Z,102666.03
2023-02-15T07:27:20.276Z,102670.31
2023-02-15T07:29:53.279Z,102663.28
2023-02-15T07:32:20.154Z,102663.19
2023-02-15T07:34:56.275Z,102649.13
2023-02-15T07:37:23.048Z,102664.72
2023-02-15T07:39:56.261Z,102657.59
2023-02-15T07:42:29.370Z,102638.28
2023-02-15T07:45:02.321Z,102644.19
2023-02-15T07:47:38.327Z,102653.56
2023-02-15T07:50:08.293Z,102649.03
2023-02-15T07:52:41.277Z,102653.28
2023-02-15T07:55:09.931Z,102643.50
2023-02-15T07:57:43.206Z,102624.97
2023-02-15T08:00:17.936Z,102622.97
2023-02-15T08:03:20.436Z,102629.78
2023-02-15T08:05:47.844Z,102615.56
2023-02-15T08:08:37.295Z,102624.94
2023-02-15T08:11:38.524Z,102616.88
2023-02-15T08:14:24.490Z,102614.03
2023-02-15T08:17:06.286Z,102611.22
2023-02-15T08:19:40.562Z,102609.25
2023-02-15T08:22:17.267Z,102605.44
2023-02-15T08:24:50.404Z,102600.81
2023-02-15T08:27:17.080Z,102601.41
2023-02-15T08:29:50.354Z,102599.47
2023-02-15T08:32:19.706Z,102600.06
2023-02-15T08:35:00.425Z,102603.34
2023-02-15T08:37:27.378Z,102603.09
2023-02-15T08:40:00.323Z,102607.34
2023-02-15T08:42:27.093Z,102607.06
2023-02-15T08:45:03.411Z,102599.81
2023-02-15T08:47:30.118Z,102611.84
2023-02-15T08:50:03.417Z,102601.97
2023-02-15T08:52:30.345Z,102604.25
2023-02-15T08:55:06.375Z,102596.94
2023-02-15T08:57:39.446Z,102605.44
2023-02-15T09:00:13.312Z,102596.44
2023-02-15T09:02:50.369Z,102598.72
2023-02-15T09:05:20.434Z,102577.63
2023-02-15T09:08:08.551Z,102566.06
2023-02-15T09:10:35.203Z,102587.44
2023-02-15T09:13:08.439Z,102584.56
2023-02-15T09:15:35.136Z,102591.25
2023-02-15T09:18:13.308Z,102584.66
2023-02-15T09:20:39.918Z,102582.44
2023-02-15T09:23:25.547Z,102583.16
2023-02-15T09:26:03.496Z,102583.72
2023-02-15T09:28:43.437Z,102579.91
2023-02-15T09:33:56.366Z,102573.72
2023-02-15T09:36:34.486Z,102577.03
2023-02-15T09:39:32.357Z,102564.22
2023-02-15T09:42:34.635Z,102572.63
2023-02-15T09:45:18.802Z,102575.88
2023-02-15T09:48:03.956Z,102583.66
2023-02-15T09:51:11.445Z,102580.31
2023-02-15T09:54:20.050Z,102578.75
2023-02-15T09:57:01.350Z,102572.09
2023-02-15T09:59:50.511Z,102576.72
2023-02-15T10:02:40.400Z,102579.00
2023-02-15T10:05:27.199Z,102573.88
2023-02-15T10:08:15.343Z,102569.09
2023-02-15T10:11:23.681Z,102569.81
2023-02-15T10:14:25.616Z,102568.19
2023-02-15T10:17:36.388Z,102569.34
2023-02-15T10:20:32.174Z,102574.84
2023-02-15T10:23:30.514Z,102576.72
2023-02-15T10:26:15.115Z,102572.09
2023-02-15T10:29:01.443Z,102559.19
2023-02-15T10:31:33.457Z,102552.97
2023-02-15T10:34:19.431Z,102557.38
2023-02-15T10:37:05.940Z,102550.84
2023-02-15T10:40:00.395Z,102547.94
2023-02-15T10:42:52.331Z,102547.94
2023-02-15T10:45:54.466Z,102552.00
2023-02-15T10:48:30.204Z,102555.16
2023-02-15T10:51:05.391Z,102557.25
2023-02-15T10:54:04.676Z,102544.69
2023-02-15T10:56:49.734Z,102551.13
2023-02-15T10:59:31.606Z,102551.19
2023-02-15T11:02:31.947Z,102548.06
2023-02-15T11:05:30.660Z,102541.81
2023-02-15T11:08:00.818Z,102546.78
2023-02-15T11:10:47.947Z,102540.66
2023-02-15T11:13:20.271Z,102539.44
2023-02-15T11:19:08.419Z,102542.13
2023-02-15T11:21:51.620Z,102536.66
2023-02-15T11:24:30.373Z,102527.50
2023-02-15T11:27:13.818Z,102537.63
2023-02-15T11:29:59.501Z,102524.94
2023-02-15T11:32:42.157Z,102524.75
2023-02-15T11:35:28.809Z,102521.59
2023-02-15T11:38:13.460Z,102521.31
2023-02-15T11:40:53.001Z,102519.19
2023-02-15T11:43:51.389Z,102509.06
2023-02-15T11:46:26.593Z,102514.19
2023-02-15T11:48:59.502Z,102505.13
2023-02-15T11:51:45.383Z,102488.69
2023-02-15T11:54:12.329Z,102492.34
2023-02-15T11:56:45.458Z,102487.06
2023-02-15T11:59:30.793Z,102484.06
2023-02-15T12:04:56.459Z,102468.41
2023-02-15T12:07:31.921Z,102479.66
2023-02-15T12:10:22.317Z,102471.19
2023-02-15T12:12:55.322Z,102467.59
2023-02-15T12:15:45.401Z,102470.53
2023-02-15T12:18:52.398Z,102469.88
2023-02-15T12:21:40.694Z,102468.28
2023-02-15T12:24:30.409Z,102463.69
2023-02-15T12:27:08.392Z,102460.63
2023-02-15T12:29:42.341Z,102464.09
2023-02-15T12:32:24.481Z,102463.25
2023-02-15T12:35:07.158Z,102459.06
2023-02-15T12:37:35.780Z,102453.97
2023-02-15T12:40:31.910Z,102453.19
2023-02-15T12:42:58.881Z,102443.19
2023-02-15T12:45:44.546Z,102450.75
2023-02-15T12:48:18.731Z,102447.44
2023-02-15T12:50:55.017Z,102447.94
2023-02-15T12:53:26.189Z,102441.19
2023-02-15T12:56:23.919Z,102430.53
2023-02-15T12:59:12.505Z,102439.88
2023-02-15T13:01:47.631Z,102434.38
2023-02-15T13:04:32.436Z,102422.81
2023-02-15T13:07:10.487Z,102425.00
2023-02-15T13:09:40.798Z,102431.66
2023-02-15T13:12:25.461Z,102419.31
2023-02-15T13:15:00.561Z,102424.44
2023-02-15T13:17:44.649Z,102419.44
2023-02-15T13:20:22.128Z,102409.72
2023-02-15T13:22:58.492Z,102407.59
2023-02-15T13:25:44.063Z,102399.00
2023-02-15T13:28:24.272Z,102394.16
2023-02-15T13:30:59.385Z,102374.09
2023-02-15T13:33:40.549Z,102386.41
2023-02-15T13:36:45.575Z,102363.91
2023-02-15T13:39:34.443Z,102356.41
2023-02-15T13:42:28.415Z,102368.09
2023-02-15T13:45:13.687Z,102372.72
2023-02-15T13:47:59.322Z,102376.03
2023-02-15T13:50:41.595Z,102370.25
2023-02-15T13:53:08.151Z,102376.44
2023-02-15T13:56:15.492Z,102378.81
2023-02-15T13:59:23.734Z,102373.03
2023-02-15T14:02:40.887Z,102367.66
2023-02-15T14:06:01.573Z,102353.63
2023-02-15T14:09:08.503Z,102348.06
2023-02-15T14:11:59.536Z,102351.84
2023-02-15T14:14:38.458Z,102355.13
2023-02-15T14:17:30.798Z,102357.53
2023-02-15T14:20:29.804Z,102341.28
2023-02-15T14:23:35.513Z,102350.19
2023-02-15T14:26:11.205Z,102340.22
2023-02-15T14:28:57.436Z,102337.19
2023-02-15T14:31:40.161Z,102335.66
2023-02-15T14:34:25.384Z,102319.53
2023-02-15T14:37:00.654Z,102329.88
2023-02-15T14:40:03.529Z,102327.28
2023-02-15T14:43:09.405Z,102322.72
2023-02-15T14:46:09.587Z,102324.38
2023-02-15T14:49:25.222Z,102337.94
2023-02-15T14:51:58.562Z,102327.72
2023-02-15T14:54:25.044Z,102332.41
2023-02-15T14:57:10.666Z,102327.34
2023-02-15T15:00:07.977Z,102328.53
2023-02-15T15:02:59.722Z,102324.31
2023-02-15T15:05:53.506Z,102333.94
2023-02-15T15:08:48.727Z,102321.25
2023-02-15T15:11:44.655Z,102332.81
2023-02-15T15:14:32.494Z,102330.34
2023-02-15T15:17:11.518Z,102320.31
2023-02-15T15:19:53.636Z,102329.56
2023-02-15T15:22:32.642Z,102309.03
2023-02-15T15:25:16.448Z,102302.34
2023-02-15T15:28:01.540Z,102331.41
2023-02-15T15:30:37.606Z,102326.38
2023-02-15T15:33:33.520Z,102337.41
2023-02-15T15:36:28.804Z,102320.31
2023-02-15T15:40:02.565Z,102342.44
2023-02-15T15:42:50.879Z,102342.16
2023-02-15T15:45:54.541Z,102339.63
2023-02-15T15:48:54.618Z,102327.31
2023-02-15T15:51:51.487Z,102347.03
2023-02-15T15:54:28.566Z,102342.06
2023-02-15T15:57:06.570Z,102349.63
2023-02-15T15:59:53.606Z,102336.84
2023-02-15T16:02:41.638Z,102330.41
2023-02-15T16:05:17.687Z,102306.41
2023-02-15T16:07:50.591Z,102316.38
2023-02-15T16:10:30.457Z,102316.16
2023-02-15T16:13:03.603Z,102324.94
2023-02-15T16:15:50.878Z,102314.84
2023-02-15T16:18:26.252Z,102321.47
2023-02-15T16:21:09.203Z,102315.72
2023-02-15T16:23:42.574Z,102318.53
2023-02-15T16:26:35.224Z,102324.19
2023-02-15T16:29:02.664Z,102318.56
2023-02-15T16:31:44.629Z,102325.03
2023-02-15T16:34:24.604Z,102327.94
2023-02-15T16:37:17.245Z,102337.19
2023-02-15T16:39:55.556Z,102333.22
2023-02-15T16:42:23.006Z,102333.22
2023-02-15T16:45:02.569Z,102326.41
2023-02-15T16:47:32.668Z,102312.66
2023-02-15T16:50:10.661Z,102320.00
2023-02-15T16:52:37.381Z,102317.00
2023-02-15T16:55:16.639Z,102308.13
2023-02-15T16:57:44.068Z,102295.47
2023-02-15T17:00:35.734Z,102319.78
2023-02-15T17:03:06.867Z,102313.06
2023-02-15T17:05:52.954Z,102292.59
2023-02-15T17:08:34.450Z,102305.03
2023-02-15T17:11:26.524Z,102322.47
2023-02-15T17:14:05.904Z,102323.66
2023-02-15T17:16:51.193Z,102317.88
2023-02-15T17:19:24.542Z,102329.34
2023-02-15T17:22:01.563Z,102328.59
2023-02-15T17:24:43.665Z,102337.59
2023-02-15T17:27:22.633Z,102327.41
2023-02-15T17:30:03.870Z,102316.94
2023-02-15T17:32:34.250Z,102332.56
2023-02-15T17:35:15.800Z,102322.34
2023-02-15T17:37:56.660Z,102298.97
2023-02-15T17:40:35.677Z,102323.13
2023-02-15T17:43:08.687Z,102316.31
2023-02-15T17:45:47.697Z,102324.34
2023-02-15T17:48:52.701Z,102325.44
2023-02-15T17:51:27.590Z,102307.56
2023-02-15T17:54:22.706Z,102328.63
2023-02-15T17:57:02.616Z,102329.47
2023-02-15T17:59:35.726Z,102332.22
2023-02-15T18:02:36.552Z,102314.50
2023-02-15T18:05:29.617Z,102332.53
2023-02-15T18:08:21.623Z,102324.94
2023-02-15T18:11:22.617Z,102325.63
2023-02-15T18:13:49.466Z,102317.13
2023-02-15T18:16:50.623Z,102302.41
2023-02-15T18:19:33.583Z,102306.94
2023-02-15T18:22:09.677Z,102309.44
2023-02-15T18:24:38.907Z,102305.81
2023-02-15T18:27:12.676Z,102306.59
2023-02-15T18:29:46.642Z,102311.72
2023-02-15T18:32:25.595Z,102314.81
2023-02-15T18:34:55.426Z,102309.16
2023-02-15T18:37:29.639Z,102326.53
2023-02-15T18:40:02.752Z,102345.06
2023-02-15T18:42:39.711Z,102343.41
2023-02-15T18:45:26.594Z,102350.53
2023-02-15T18:47:54.598Z,102349.00
2023-02-15T18:50:34.869Z,102335.41
2023-02-15T18:53:04.162Z,102358.34
2023-02-15T18:55:41.994Z,102362.94
2023-02-15T18:58:23.711Z,102357.16
2023-02-15T19:01:06.878Z,102356.69
2023-02-15T19:03:33.723Z,102363.91
2023-02-15T19:06:10.610Z,102356.50
2023-02-15T19:08:39.493Z,102351.25
2023-02-15T19:11:37.062Z,102360.00
2023-02-15T19:14:03.861Z,102343.53
2023-02-15T19:16:44.907Z,102369.41
2023-02-15T19:19:11.533Z,102359.13
2023-02-15T19:21:46.689Z,102362.75
2023-02-15T19:24:28.887Z,102365.63
2023-02-15T19:27:04.638Z,102360.41
2023-02-15T19:29:31.547Z,102345.69
2023-02-15T19:32:07.497Z,102350.69
2023-02-15T19:34:50.751Z,102333.47
2023-02-15T19:37:42.550Z,102352.63
2023-02-15T19:40:27.769Z,102345.03
2023-02-15T19:42:54.913Z,102347.69
2023-02-15T19:45:32.102Z,102341.19
2023-02-15T19:48:08.769Z,102353.38
2023-02-15T19:50:45.649Z,102351.97
2023-02-15T19:53:23.075Z,102360.66
2023-02-15T19:56:06.676Z,102343.72
2023-02-15T19:58:39.900Z,102357.63
2023-02-15T20:01:22.840Z,102341.09
2023-02-15T20:03:53.517Z,102347.94
2023-02-15T20:06:56.663Z,102352.19
2023-02-15T20:09:26.433Z,102327.00
2023-02-15T20:12:00.708Z,102344.38
2023-02-15T20:14:33.638Z,102345.41
2023-02-15T20:17:10.694Z,102345.75
2023-02-15T20:19:45.655Z,102345.00
2023-02-15T20:22:30.806Z,102341.53
2023-02-15T20:25:26.859Z,102350.06
2023-02-15T20:28:00.731Z,102343.88
2023-02-15T20:30:32.614Z,102333.81
2023-02-15T20:33:05.629Z,102333.00
2023-02-15T20:35:43.646Z,102332.13
2023-02-15T20:38:38.132Z,102342.66
2023-02-15T20:41:43.619Z,102323.50
2023-02-15T20:44:28.807Z,102351.50
2023-02-15T20:46:58.062Z,102345.53
2023-02-15T20:49:32.678Z,102356.06
2023-02-15T20:52:01.354Z,102344.72
2023-02-15T20:54:39.709Z,102342.31
2023-02-15T20:57:07.185Z,102345.78
2023-02-15T20:59:47.718Z,102343.13
2023-02-15T21:05:39.769Z,102343.25
2023-02-15T21:08:14.532Z,102310.34
2023-02-15T21:10:51.659Z,102337.09
2023-02-15T21:13:27.342Z,102331.59
2023-02-15T21:16:02.858Z,102337.81
2023-02-15T21:18:33.482Z,102334.19
2023-02-15T21:21:12.772Z,102306.44
2023-02-15T21:23:45.486Z,102308.94
2023-02-15T21:26:23.778Z,102314.91
2023-02-15T21:28:50.958Z,102297.47
2023-02-15T21:31:33.940Z,102319.16
2023-02-15T21:34:08.877Z,102319.53
2023-02-15T21:36:35.830Z,102322.88
2023-02-15T21:39:09.783Z,102301.13
2023-02-15T21:41:55.585Z,102313.25
2023-02-15T21:44:50.790Z,102322.88
2023-02-15T21:47:55.855Z,102323.66
2023-02-15T21:50:53.824Z,102306.50
2023-02-15T21:53:27.519Z,102315.91
2023-02-15T21:56:06.010Z,102307.47
2023-02-15T21:58:36.877Z,102295.75
2023-02-15T22:01:10.790Z,102329.63
2023-02-15T22:03:44.868Z,102318.22
2023-02-15T22:06:37.615Z,102289.09
2023-02-15T22:09:25.778Z,102298.56
2023-02-15T22:12:03.860Z,102284.06
2023-02-15T22:14:38.116Z,102323.09
2023-02-15T22:17:22.687Z,102319.63
2023-02-15T22:19:50.128Z,102325.06
2023-02-15T22:22:23.701Z,102311.22
2023-02-15T22:25:08.723Z,102304.31
2023-02-15T22:27:45.699Z,102315.53
2023-02-15T22:30:26.554Z,102327.00
2023-02-15T22:33:01.748Z,102323.53
2023-02-15T22:35:44.831Z,102296.66
2023-02-15T22:38:17.803Z,102315.94
2023-02-15T22:40:56.360Z,102287.47
2023-02-15T22:43:37.719Z,102324.53
2023-02-15T22:46:20.211Z,102314.06
2023-02-15T22:48:59.036Z,102302.25
2023-02-15T22:51:29.709Z,102295.34
2023-02-15T22:54:05.766Z,102302.25
2023-02-15T22:56:43.462Z,102313.59
2023-02-15T22:59:38.837Z,102329.41
2023-02-15T23:02:20.581Z,102326.75
2023-02-15T23:04:53.845Z,102311.38
2023-02-15T23:07:27.764Z,102324.47
2023-02-15T23:10:06.685Z,102317.72
2023-02-15T23:12:53.605Z,102325.66
2023-02-15T23:15:26.935Z,102324.97
2023-02-15T23:17:59.706Z,102318.06
2023-02-15T23:20:26.657Z,102304.31
2023-02-15T23:22:59.808Z,102286.22
2023-02-15T23:25:55.149Z,102311.28
2023-02-15T23:28:33.784Z,102294.16
2023-02-15T23:31:09.669Z,102322.09
2023-02-15T23:33:36.469Z,102303.84
2023-02-15T23:36:09.777Z,102300.38
2023-02-15T23:38:42.760Z,102289.25
2023-02-15T23:41:27.044Z,102303.84
2023-02-15T23:44:06.773Z,102315.25
2023-02-15T23:46:42.888Z,102280.78
2023-02-15T23:49:25.915Z,102314.56
2023-02-15T23:52:00.837Z,102302.66
2023-02-15T23:54:27.553Z,102306.22
2023-02-15T23:57:09.790Z,102297.63
2023-02-15T23:59:44.818Z,102316.81
